sensor_id;sensor_type;location;lat;lon;timestamp;P1;durP1;ratioP1;P2;durP2;ratioP2
61899;SDS011;47853;55.890;37.664;2024-02-26T00:00:45;5.82;;;2.90;;
61899;SDS011;47853;55.890;37.664;2024-02-26T00:03:11;4.43;;;3.08;;
61899;SDS011;47853;55.890;37.664;2024-02-26T00:05:36;6.15;;;3.17;;
61899;SDS011;47853;55.890;37.664;2024-02-26T00:08:01;10.60;;;3.50;;
61899;SDS011;47853;55.890;37.664;2024-02-26T00:10:27;5.75;;;3.22;;
61899;SDS011;47853;55.890;37.664;2024-02-26T00:12:52;6.45;;;3.17;;
61899;SDS011;47853;55.890;37.664;2024-02-26T00:15:18;5.15;;;2.60;;
61899;SDS011;47853;55.890;37.664;2024-02-26T00:17:43;7.05;;;3.10;;
61899;SDS011;47853;55.890;37.664;2024-02-26T00:20:10;5.88;;;2.83;;
61899;SDS011;47853;55.890;37.664;2024-02-26T00:22:36;7.85;;;3.08;;
61899;SDS011;47853;55.890;37.664;2024-02-26T00:25:01;7.03;;;2.60;;
61899;SDS011;47853;55.890;37.664;2024-02-26T00:27:27;5.82;;;3.17;;
61899;SDS011;47853;55.890;37.664;2024-02-26T00:29:52;2.42;;;2.10;;
61899;SDS011;47853;55.890;37.664;2024-02-26T00:32:17;8.23;;;3.20;;
61899;SDS011;47853;55.890;37.664;2024-02-26T00:34:43;8.27;;;3.28;;
61899;SDS011;47853;55.890;37.664;2024-02-26T00:37:08;5.68;;;2.97;;
61899;SDS011;47853;55.890;37.664;2024-02-26T00:39:34;5.60;;;3.63;;
61899;SDS011;47853;55.890;37.664;2024-02-26T00:41:59;4.15;;;2.65;;
61899;SDS011;47853;55.890;37.664;2024-02-26T00:44:25;6.55;;;3.38;;
61899;SDS011;47853;55.890;37.664;2024-02-26T00:46:50;5.53;;;2.53;;
61899;SDS011;47853;55.890;37.664;2024-02-26T00:49:16;6.00;;;2.85;;
61899;SDS011;47853;55.890;37.664;2024-02-26T00:51:41;5.82;;;3.17;;
61899;SDS011;47853;55.890;37.664;2024-02-26T00:54:06;5.03;;;3.58;;
61899;SDS011;47853;55.890;37.664;2024-02-26T00:56:32;6.45;;;2.83;;
61899;SDS011;47853;55.890;37.664;2024-02-26T00:58:58;6.40;;;2.88;;
61899;SDS011;47853;55.890;37.664;2024-02-26T01:01:23;4.40;;;2.88;;
61899;SDS011;47853;55.890;37.664;2024-02-26T01:03:49;7.45;;;3.20;;
61899;SDS011;47853;55.890;37.664;2024-02-26T01:06:14;4.78;;;2.70;;
61899;SDS011;47853;55.890;37.664;2024-02-26T01:08:40;4.57;;;2.75;;
61899;SDS011;47853;55.890;37.664;2024-02-26T01:11:05;4.80;;;2.63;;
61899;SDS011;47853;55.890;37.664;2024-02-26T01:13:30;5.70;;;2.80;;
61899;SDS011;47853;55.890;37.664;2024-02-26T01:15:56;4.47;;;2.97;;
61899;SDS011;47853;55.890;37.664;2024-02-26T01:18:21;6.45;;;3.53;;
61899;SDS011;47853;55.890;37.664;2024-02-26T01:20:47;7.05;;;3.35;;
61899;SDS011;47853;55.890;37.664;2024-02-26T01:23:13;6.80;;;2.80;;
61899;SDS011;47853;55.890;37.664;2024-02-26T01:25:38;3.78;;;2.90;;
61899;SDS011;47853;55.890;37.664;2024-02-26T01:28:03;6.75;;;3.00;;
61899;SDS011;47853;55.890;37.664;2024-02-26T01:30:29;3.50;;;2.60;;
61899;SDS011;47853;55.890;37.664;2024-02-26T01:32:55;5.85;;;3.00;;
61899;SDS011;47853;55.890;37.664;2024-02-26T01:35:20;2.22;;;1.80;;
61899;SDS011;47853;55.890;37.664;2024-02-26T01:37:46;5.13;;;3.00;;
61899;SDS011;47853;55.890;37.664;2024-02-26T01:40:11;6.10;;;2.63;;
61899;SDS011;47853;55.890;37.664;2024-02-26T01:42:40;6.65;;;3.13;;
61899;SDS011;47853;55.890;37.664;2024-02-26T01:45:06;6.03;;;2.95;;
61899;SDS011;47853;55.890;37.664;2024-02-26T01:50:05;4.28;;;2.80;;
61899;SDS011;47853;55.890;37.664;2024-02-26T01:52:31;4.05;;;2.28;;
61899;SDS011;47853;55.890;37.664;2024-02-26T01:54:57;6.75;;;2.80;;
61899;SDS011;47853;55.890;37.664;2024-02-26T01:57:22;3.47;;;2.42;;
61899;SDS011;47853;55.890;37.664;2024-02-26T01:59:48;3.53;;;2.10;;
61899;SDS011;47853;55.890;37.664;2024-02-26T02:02:13;2.40;;;2.20;;
61899;SDS011;47853;55.890;37.664;2024-02-26T02:04:40;5.45;;;2.80;;
61899;SDS011;47853;55.890;37.664;2024-02-26T02:07:06;3.97;;;2.72;;
61899;SDS011;47853;55.890;37.664;2024-02-26T02:09:32;7.03;;;2.78;;
61899;SDS011;47853;55.890;37.664;2024-02-26T02:11:59;9.50;;;3.00;;
61899;SDS011;47853;55.890;37.664;2024-02-26T02:14:25;5.15;;;2.58;;
61899;SDS011;47853;55.890;37.664;2024-02-26T02:16:51;5.20;;;2.85;;
61899;SDS011;47853;55.890;37.664;2024-02-26T02:19:16;13.70;;;3.05;;
61899;SDS011;47853;55.890;37.664;2024-02-26T02:21:41;5.05;;;2.45;;
61899;SDS011;47853;55.890;37.664;2024-02-26T02:24:07;8.68;;;2.50;;
61899;SDS011;47853;55.890;37.664;2024-02-26T02:26:32;6.38;;;2.72;;
61899;SDS011;47853;55.890;37.664;2024-02-26T02:28:58;5.10;;;2.22;;
61899;SDS011;47853;55.890;37.664;2024-02-26T02:31:25;5.32;;;2.05;;
61899;SDS011;47853;55.890;37.664;2024-02-26T02:33:51;5.68;;;2.50;;
61899;SDS011;47853;55.890;37.664;2024-02-26T02:36:16;7.18;;;1.92;;
61899;SDS011;47853;55.890;37.664;2024-02-26T02:38:48;5.63;;;2.92;;
61899;SDS011;47853;55.890;37.664;2024-02-26T02:41:14;5.85;;;2.67;;
61899;SDS011;47853;55.890;37.664;2024-02-26T02:43:39;4.88;;;2.30;;
61899;SDS011;47853;55.890;37.664;2024-02-26T02:46:05;4.57;;;2.13;;
61899;SDS011;47853;55.890;37.664;2024-02-26T02:48:30;3.00;;;2.17;;
61899;SDS011;47853;55.890;37.664;2024-02-26T02:50:56;2.53;;;1.92;;
61899;SDS011;47853;55.890;37.664;2024-02-26T02:53:21;5.47;;;2.03;;
61899;SDS011;47853;55.890;37.664;2024-02-26T02:55:47;3.70;;;2.38;;
61899;SDS011;47853;55.890;37.664;2024-02-26T02:58:12;4.78;;;2.25;;
61899;SDS011;47853;55.890;37.664;2024-02-26T03:00:37;4.95;;;2.40;;
61899;SDS011;47853;55.890;37.664;2024-02-26T03:03:03;5.88;;;2.75;;
61899;SDS011;47853;55.890;37.664;2024-02-26T03:05:29;4.70;;;2.15;;
61899;SDS011;47853;55.890;37.664;2024-02-26T03:07:54;4.15;;;1.92;;
61899;SDS011;47853;55.890;37.664;2024-02-26T03:10:19;6.00;;;2.28;;
61899;SDS011;47853;55.890;37.664;2024-02-26T03:12:45;5.85;;;2.30;;
61899;SDS011;47853;55.890;37.664;2024-02-26T03:15:11;5.15;;;2.30;;
61899;SDS011;47853;55.890;37.664;2024-02-26T03:17:36;3.47;;;2.42;;
61899;SDS011;47853;55.890;37.664;2024-02-26T03:20:02;5.40;;;2.40;;
61899;SDS011;47853;55.890;37.664;2024-02-26T03:22:27;4.40;;;2.40;;
61899;SDS011;47853;55.890;37.664;2024-02-26T03:24:52;3.08;;;1.95;;
61899;SDS011;47853;55.890;37.664;2024-02-26T03:27:18;2.75;;;2.08;;
61899;SDS011;47853;55.890;37.664;2024-02-26T03:29:43;3.35;;;1.88;;
61899;SDS011;47853;55.890;37.664;2024-02-26T03:32:09;2.85;;;1.98;;
61899;SDS011;47853;55.890;37.664;2024-02-26T03:34:34;4.22;;;2.45;;
61899;SDS011;47853;55.890;37.664;2024-02-26T03:37:00;4.13;;;1.83;;
61899;SDS011;47853;55.890;37.664;2024-02-26T03:39:25;2.88;;;2.03;;
61899;SDS011;47853;55.890;37.664;2024-02-26T03:41:51;1.77;;;1.27;;
61899;SDS011;47853;55.890;37.664;2024-02-26T03:44:17;2.47;;;2.03;;
61899;SDS011;47853;55.890;37.664;2024-02-26T03:46:42;4.93;;;2.40;;
61899;SDS011;47853;55.890;37.664;2024-02-26T03:49:08;4.20;;;2.22;;
61899;SDS011;47853;55.890;37.664;2024-02-26T03:51:33;3.83;;;2.22;;
61899;SDS011;47853;55.890;37.664;2024-02-26T03:53:59;5.57;;;2.58;;
61899;SDS011;47853;55.890;37.664;2024-02-26T03:56:25;3.17;;;2.15;;
61899;SDS011;47853;55.890;37.664;2024-02-26T03:58:51;3.97;;;2.45;;
61899;SDS011;47853;55.890;37.664;2024-02-26T04:01:16;3.45;;;2.10;;
61899;SDS011;47853;55.890;37.664;2024-02-26T04:03:42;5.15;;;2.50;;
61899;SDS011;47853;55.890;37.664;2024-02-26T04:06:11;3.42;;;2.03;;
61899;SDS011;47853;55.890;37.664;2024-02-26T04:08:37;3.55;;;1.70;;
61899;SDS011;47853;55.890;37.664;2024-02-26T04:11:02;7.22;;;2.55;;
61899;SDS011;47853;55.890;37.664;2024-02-26T04:13:28;5.55;;;2.72;;
61899;SDS011;47853;55.890;37.664;2024-02-26T04:15:54;5.72;;;2.95;;
61899;SDS011;47853;55.890;37.664;2024-02-26T04:18:19;3.65;;;2.30;;
61899;SDS011;47853;55.890;37.664;2024-02-26T04:20:45;8.35;;;2.58;;
61899;SDS011;47853;55.890;37.664;2024-02-26T04:23:10;3.63;;;2.22;;
61899;SDS011;47853;55.890;37.664;2024-02-26T04:25:35;2.97;;;1.70;;
61899;SDS011;47853;55.890;37.664;2024-02-26T04:28:01;3.08;;;2.15;;
61899;SDS011;47853;55.890;37.664;2024-02-26T04:30:26;6.25;;;3.25;;
61899;SDS011;47853;55.890;37.664;2024-02-26T04:32:52;6.40;;;2.65;;
61899;SDS011;47853;55.890;37.664;2024-02-26T04:35:17;6.28;;;2.80;;
61899;SDS011;47853;55.890;37.664;2024-02-26T04:37:43;4.43;;;2.45;;
61899;SDS011;47853;55.890;37.664;2024-02-26T04:40:08;5.30;;;2.60;;
61899;SDS011;47853;55.890;37.664;2024-02-26T04:42:34;3.13;;;2.53;;
61899;SDS011;47853;55.890;37.664;2024-02-26T04:44:59;4.43;;;1.77;;
61899;SDS011;47853;55.890;37.664;2024-02-26T04:47:24;6.82;;;2.67;;
61899;SDS011;47853;55.890;37.664;2024-02-26T04:49:50;4.57;;;2.50;;
61899;SDS011;47853;55.890;37.664;2024-02-26T04:52:16;8.15;;;2.58;;
61899;SDS011;47853;55.890;37.664;2024-02-26T04:54:41;4.15;;;2.20;;
61899;SDS011;47853;55.890;37.664;2024-02-26T04:57:07;3.88;;;1.83;;
61899;SDS011;47853;55.890;37.664;2024-02-26T04:59:32;4.03;;;2.45;;
61899;SDS011;47853;55.890;37.664;2024-02-26T05:01:57;5.28;;;3.00;;
61899;SDS011;47853;55.890;37.664;2024-02-26T05:04:23;4.00;;;2.72;;
61899;SDS011;47853;55.890;37.664;2024-02-26T05:12:29;10.30;;;3.25;;
61899;SDS011;47853;55.890;37.664;2024-02-26T05:14:54;7.07;;;3.15;;
61899;SDS011;47853;55.890;37.664;2024-02-26T05:17:20;5.60;;;2.20;;
61899;SDS011;47853;55.890;37.664;2024-02-26T05:19:45;4.82;;;2.30;;
61899;SDS011;47853;55.890;37.664;2024-02-26T05:22:11;4.75;;;2.65;;
61899;SDS011;47853;55.890;37.664;2024-02-26T05:24:37;5.72;;;2.70;;
61899;SDS011;47853;55.890;37.664;2024-02-26T05:27:03;2.25;;;1.80;;
61899;SDS011;47853;55.890;37.664;2024-02-26T05:29:29;8.45;;;3.25;;
61899;SDS011;47853;55.890;37.664;2024-02-26T05:31:54;3.25;;;2.60;;
61899;SDS011;47853;55.890;37.664;2024-02-26T05:34:19;10.35;;;3.17;;
61899;SDS011;47853;55.890;37.664;2024-02-26T05:36:45;5.13;;;2.80;;
61899;SDS011;47853;55.890;37.664;2024-02-26T05:39:10;8.95;;;3.47;;
61899;SDS011;47853;55.890;37.664;2024-02-26T05:41:36;4.28;;;3.15;;
61899;SDS011;47853;55.890;37.664;2024-02-26T05:44:01;5.03;;;2.28;;
61899;SDS011;47853;55.890;37.664;2024-02-26T05:46:27;6.05;;;3.03;;
61899;SDS011;47853;55.890;37.664;2024-02-26T05:48:52;7.03;;;3.13;;
61899;SDS011;47853;55.890;37.664;2024-02-26T05:51:18;8.50;;;3.97;;
61899;SDS011;47853;55.890;37.664;2024-02-26T05:53:44;6.18;;;3.50;;
61899;SDS011;47853;55.890;37.664;2024-02-26T05:56:09;5.90;;;3.58;;
61899;SDS011;47853;55.890;37.664;2024-02-26T05:58:35;5.88;;;3.50;;
61899;SDS011;47853;55.890;37.664;2024-02-26T06:01:00;6.05;;;3.40;;
61899;SDS011;47853;55.890;37.664;2024-02-26T06:03:26;7.80;;;3.83;;
61899;SDS011;47853;55.890;37.664;2024-02-26T06:05:52;4.13;;;3.05;;
61899;SDS011;47853;55.890;37.664;2024-02-26T06:08:17;7.82;;;3.83;;
61899;SDS011;47853;55.890;37.664;2024-02-26T06:10:43;5.20;;;3.00;;
61899;SDS011;47853;55.890;37.664;2024-02-26T06:13:09;10.23;;;3.40;;
61899;SDS011;47853;55.890;37.664;2024-02-26T06:15:34;5.47;;;2.75;;
61899;SDS011;47853;55.890;37.664;2024-02-26T06:18:00;9.10;;;3.75;;
61899;SDS011;47853;55.890;37.664;2024-02-26T06:20:25;8.70;;;3.53;;
61899;SDS011;47853;55.890;37.664;2024-02-26T06:22:50;7.97;;;3.08;;
61899;SDS011;47853;55.890;37.664;2024-02-26T06:25:16;15.73;;;4.35;;
61899;SDS011;47853;55.890;37.664;2024-02-26T06:27:41;4.38;;;2.83;;
61899;SDS011;47853;55.890;37.664;2024-02-26T06:30:07;7.68;;;4.03;;
61899;SDS011;47853;55.890;37.664;2024-02-26T06:32:33;4.72;;;3.08;;
61899;SDS011;47853;55.890;37.664;2024-02-26T06:34:58;4.07;;;3.47;;
61899;SDS011;47853;55.890;37.664;2024-02-26T06:37:24;9.05;;;4.05;;
61899;SDS011;47853;55.890;37.664;2024-02-26T06:39:49;5.03;;;3.63;;
61899;SDS011;47853;55.890;37.664;2024-02-26T06:42:14;10.73;;;5.03;;
61899;SDS011;47853;55.890;37.664;2024-02-26T06:44:40;7.95;;;4.35;;
61899;SDS011;47853;55.890;37.664;2024-02-26T06:47:05;11.38;;;4.60;;
61899;SDS011;47853;55.890;37.664;2024-02-26T06:49:31;4.63;;;3.35;;
61899;SDS011;47853;55.890;37.664;2024-02-26T06:51:56;18.23;;;5.47;;
61899;SDS011;47853;55.890;37.664;2024-02-26T06:54:21;4.68;;;3.60;;
61899;SDS011;47853;55.890;37.664;2024-02-26T06:56:47;6.75;;;3.30;;
61899;SDS011;47853;55.890;37.664;2024-02-26T06:59:12;8.57;;;4.65;;
61899;SDS011;47853;55.890;37.664;2024-02-26T07:01:40;8.93;;;4.50;;
61899;SDS011;47853;55.890;37.664;2024-02-26T07:04:06;14.57;;;3.65;;
61899;SDS011;47853;55.890;37.664;2024-02-26T07:06:32;10.65;;;5.22;;
61899;SDS011;47853;55.890;37.664;2024-02-26T07:08:57;6.05;;;3.50;;
61899;SDS011;47853;55.890;37.664;2024-02-26T07:11:23;12.93;;;4.55;;
61899;SDS011;47853;55.890;37.664;2024-02-26T07:13:48;16.65;;;4.60;;
61899;SDS011;47853;55.890;37.664;2024-02-26T07:16:14;4.97;;;3.22;;
61899;SDS011;47853;55.890;37.664;2024-02-26T07:18:39;22.48;;;4.70;;
61899;SDS011;47853;55.890;37.664;2024-02-26T07:21:04;8.63;;;3.78;;
61899;SDS011;47853;55.890;37.664;2024-02-26T07:23:31;8.38;;;4.38;;
61899;SDS011;47853;55.890;37.664;2024-02-26T07:25:56;10.70;;;4.45;;
61899;SDS011;47853;55.890;37.664;2024-02-26T07:28:22;9.88;;;2.97;;
61899;SDS011;47853;55.890;37.664;2024-02-26T07:30:47;10.15;;;5.18;;
61899;SDS011;47853;55.890;37.664;2024-02-26T07:33:13;12.13;;;3.40;;
61899;SDS011;47853;55.890;37.664;2024-02-26T07:35:38;7.80;;;4.30;;
61899;SDS011;47853;55.890;37.664;2024-02-26T07:38:04;8.75;;;3.90;;
61899;SDS011;47853;55.890;37.664;2024-02-26T07:40:30;4.57;;;3.03;;
61899;SDS011;47853;55.890;37.664;2024-02-26T07:42:55;11.18;;;5.00;;
61899;SDS011;47853;55.890;37.664;2024-02-26T07:45:21;7.97;;;4.32;;
61899;SDS011;47853;55.890;37.664;2024-02-26T07:47:46;9.15;;;4.30;;
61899;SDS011;47853;55.890;37.664;2024-02-26T07:50:12;7.07;;;4.20;;
61899;SDS011;47853;55.890;37.664;2024-02-26T07:52:38;11.73;;;5.28;;
61899;SDS011;47853;55.890;37.664;2024-02-26T07:55:04;4.90;;;2.75;;
61899;SDS011;47853;55.890;37.664;2024-02-26T07:57:31;12.02;;;4.45;;
61899;SDS011;47853;55.890;37.664;2024-02-26T07:59:57;10.38;;;3.38;;
61899;SDS011;47853;55.890;37.664;2024-02-26T08:02:22;3.85;;;2.85;;
61899;SDS011;47853;55.890;37.664;2024-02-26T08:04:48;3.80;;;2.95;;
61899;SDS011;47853;55.890;37.664;2024-02-26T08:07:13;6.75;;;4.05;;
61899;SDS011;47853;55.890;37.664;2024-02-26T08:09:39;14.15;;;3.60;;
61899;SDS011;47853;55.890;37.664;2024-02-26T08:12:04;10.93;;;4.55;;
61899;SDS011;47853;55.890;37.664;2024-02-26T08:14:30;2.65;;;1.98;;
61899;SDS011;47853;55.890;37.664;2024-02-26T08:16:55;26.42;;;5.00;;
61899;SDS011;47853;55.890;37.664;2024-02-26T08:19:21;8.57;;;4.00;;
61899;SDS011;47853;55.890;37.664;2024-02-26T08:21:46;8.68;;;4.28;;
61899;SDS011;47853;55.890;37.664;2024-02-26T08:24:12;8.82;;;3.85;;
61899;SDS011;47853;55.890;37.664;2024-02-26T08:26:37;8.45;;;3.25;;
61899;SDS011;47853;55.890;37.664;2024-02-26T08:29:03;12.38;;;4.50;;
61899;SDS011;47853;55.890;37.664;2024-02-26T08:31:28;11.02;;;4.38;;
61899;SDS011;47853;55.890;37.664;2024-02-26T08:33:53;12.77;;;3.90;;
61899;SDS011;47853;55.890;37.664;2024-02-26T08:36:19;6.25;;;3.65;;
61899;SDS011;47853;55.890;37.664;2024-02-26T08:38:44;8.38;;;2.78;;
61899;SDS011;47853;55.890;37.664;2024-02-26T08:41:10;7.30;;;4.38;;
61899;SDS011;47853;55.890;37.664;2024-02-26T08:43:35;13.30;;;3.95;;
61899;SDS011;47853;55.890;37.664;2024-02-26T08:46:01;7.30;;;3.95;;
61899;SDS011;47853;55.890;37.664;2024-02-26T08:48:26;4.65;;;2.58;;
61899;SDS011;47853;55.890;37.664;2024-02-26T08:50:51;5.85;;;3.83;;
61899;SDS011;47853;55.890;37.664;2024-02-26T08:53:17;6.90;;;3.60;;
61899;SDS011;47853;55.890;37.664;2024-02-26T08:55:42;7.28;;;3.50;;
61899;SDS011;47853;55.890;37.664;2024-02-26T08:58:08;8.07;;;4.10;;
61899;SDS011;47853;55.890;37.664;2024-02-26T09:00:33;6.80;;;4.20;;
61899;SDS011;47853;55.890;37.664;2024-02-26T09:02:58;9.70;;;3.53;;
61899;SDS011;47853;55.890;37.664;2024-02-26T09:05:24;10.38;;;3.03;;
61899;SDS011;47853;55.890;37.664;2024-02-26T09:07:49;13.80;;;4.35;;
61899;SDS011;47853;55.890;37.664;2024-02-26T09:10:15;9.43;;;4.43;;
61899;SDS011;47853;55.890;37.664;2024-02-26T09:12:40;7.22;;;4.28;;
61899;SDS011;47853;55.890;37.664;2024-02-26T09:15:06;15.27;;;4.15;;
61899;SDS011;47853;55.890;37.664;2024-02-26T09:17:32;13.57;;;4.78;;
61899;SDS011;47853;55.890;37.664;2024-02-26T09:20:02;9.75;;;4.32;;
61899;SDS011;47853;55.890;37.664;2024-02-26T09:22:27;9.63;;;4.03;;
61899;SDS011;47853;55.890;37.664;2024-02-26T09:24:53;11.52;;;4.47;;
61899;SDS011;47853;55.890;37.664;2024-02-26T09:27:18;16.65;;;5.78;;
61899;SDS011;47853;55.890;37.664;2024-02-26T09:29:44;11.80;;;4.38;;
61899;SDS011;47853;55.890;37.664;2024-02-26T09:32:09;13.02;;;4.68;;
61899;SDS011;47853;55.890;37.664;2024-02-26T09:34:35;13.43;;;4.55;;
61899;SDS011;47853;55.890;37.664;2024-02-26T09:37:00;9.10;;;4.80;;
61899;SDS011;47853;55.890;37.664;2024-02-26T09:39:26;16.30;;;4.28;;
61899;SDS011;47853;55.890;37.664;2024-02-26T09:41:51;10.05;;;4.40;;
61899;SDS011;47853;55.890;37.664;2024-02-26T09:44:19;11.88;;;3.92;;
61899;SDS011;47853;55.890;37.664;2024-02-26T09:46:45;4.75;;;2.58;;
61899;SDS011;47853;55.890;37.664;2024-02-26T09:49:13;14.10;;;4.55;;
61899;SDS011;47853;55.890;37.664;2024-02-26T09:51:40;11.10;;;4.07;;
61899;SDS011;47853;55.890;37.664;2024-02-26T09:54:07;9.93;;;4.70;;
61899;SDS011;47853;55.890;37.664;2024-02-26T09:56:35;10.70;;;4.95;;
61899;SDS011;47853;55.890;37.664;2024-02-26T09:59:04;18.95;;;5.18;;
61899;SDS011;47853;55.890;37.664;2024-02-26T10:01:33;14.30;;;5.78;;
61899;SDS011;47853;55.890;37.664;2024-02-26T10:03:59;5.72;;;3.80;;
61899;SDS011;47853;55.890;37.664;2024-02-26T10:06:28;17.73;;;5.18;;
61899;SDS011;47853;55.890;37.664;2024-02-26T10:08:57;10.77;;;4.53;;
61899;SDS011;47853;55.890;37.664;2024-02-26T10:11:22;7.85;;;4.78;;
61899;SDS011;47853;55.890;37.664;2024-02-26T10:13:49;8.02;;;4.57;;
61899;SDS011;47853;55.890;37.664;2024-02-26T10:16:15;12.45;;;4.70;;
61899;SDS011;47853;55.890;37.664;2024-02-26T10:18:51;9.75;;;4.13;;
61899;SDS011;47853;55.890;37.664;2024-02-26T10:21:17;15.77;;;5.60;;
61899;SDS011;47853;55.890;37.664;2024-02-26T10:23:43;10.77;;;4.43;;
61899;SDS011;47853;55.890;37.664;2024-02-26T10:26:10;9.73;;;4.22;;
61899;SDS011;47853;55.890;37.664;2024-02-26T10:28:35;11.30;;;4.53;;
61899;SDS011;47853;55.890;37.664;2024-02-26T10:31:04;12.80;;;4.03;;
61899;SDS011;47853;55.890;37.664;2024-02-26T10:33:31;16.63;;;4.60;;
61899;SDS011;47853;55.890;37.664;2024-02-26T10:35:58;19.52;;;5.30;;
61899;SDS011;47853;55.890;37.664;2024-02-26T10:38:24;14.93;;;5.05;;
61899;SDS011;47853;55.890;37.664;2024-02-26T10:40:49;7.32;;;3.03;;
61899;SDS011;47853;55.890;37.664;2024-02-26T10:43:18;9.68;;;4.25;;
61899;SDS011;47853;55.890;37.664;2024-02-26T10:45:45;7.82;;;4.25;;
61899;SDS011;47853;55.890;37.664;2024-02-26T10:48:12;9.95;;;4.13;;
61899;SDS011;47853;55.890;37.664;2024-02-26T10:50:39;6.05;;;3.58;;
61899;SDS011;47853;55.890;37.664;2024-02-26T10:53:05;9.27;;;4.00;;
61899;SDS011;47853;55.890;37.664;2024-02-26T10:55:37;8.57;;;4.45;;
61899;SDS011;47853;55.890;37.664;2024-02-26T10:58:04;9.18;;;4.40;;
61899;SDS011;47853;55.890;37.664;2024-02-26T11:00:32;8.27;;;4.30;;
61899;SDS011;47853;55.890;37.664;2024-02-26T11:02:57;13.32;;;4.90;;
61899;SDS011;47853;55.890;37.664;2024-02-26T11:05:24;15.38;;;5.78;;
61899;SDS011;47853;55.890;37.664;2024-02-26T11:07:50;15.95;;;5.53;;
61899;SDS011;47853;55.890;37.664;2024-02-26T11:10:17;11.45;;;4.75;;
61899;SDS011;47853;55.890;37.664;2024-02-26T11:12:45;8.57;;;4.07;;
61899;SDS011;47853;55.890;37.664;2024-02-26T11:15:11;8.02;;;3.92;;
61899;SDS011;47853;55.890;37.664;2024-02-26T11:17:37;9.43;;;4.45;;
61899;SDS011;47853;55.890;37.664;2024-02-26T11:20:03;12.63;;;4.70;;
61899;SDS011;47853;55.890;37.664;2024-02-26T11:22:30;13.13;;;4.75;;
61899;SDS011;47853;55.890;37.664;2024-02-26T11:24:55;9.65;;;4.03;;
61899;SDS011;47853;55.890;37.664;2024-02-26T11:27:22;9.77;;;4.00;;
61899;SDS011;47853;55.890;37.664;2024-02-26T11:29:52;7.63;;;3.67;;
61899;SDS011;47853;55.890;37.664;2024-02-26T11:32:19;15.93;;;4.97;;
61899;SDS011;47853;55.890;37.664;2024-02-26T11:34:45;12.75;;;5.50;;
61899;SDS011;47853;55.890;37.664;2024-02-26T11:37:11;15.60;;;5.53;;
61899;SDS011;47853;55.890;37.664;2024-02-26T11:39:41;12.45;;;4.60;;
61899;SDS011;47853;55.890;37.664;2024-02-26T11:42:08;10.48;;;4.18;;
61899;SDS011;47853;55.890;37.664;2024-02-26T11:44:34;9.90;;;4.22;;
61899;SDS011;47853;55.890;37.664;2024-02-26T11:47:09;7.03;;;3.83;;
61899;SDS011;47853;55.890;37.664;2024-02-26T11:49:38;10.73;;;5.38;;
61899;SDS011;47853;55.890;37.664;2024-02-26T11:52:07;11.45;;;4.75;;
61899;SDS011;47853;55.890;37.664;2024-02-26T11:59:46;19.40;;;5.40;;
61899;SDS011;47853;55.890;37.664;2024-02-26T12:02:19;16.88;;;5.75;;
61899;SDS011;47853;55.890;37.664;2024-02-26T12:05:11;10.23;;;5.43;;
61899;SDS011;47853;55.890;37.664;2024-02-26T12:07:39;7.57;;;3.92;;
61899;SDS011;47853;55.890;37.664;2024-02-26T12:10:25;10.77;;;5.03;;
61899;SDS011;47853;55.890;37.664;2024-02-26T12:12:58;16.73;;;5.75;;
61899;SDS011;47853;55.890;37.664;2024-02-26T12:15:26;10.80;;;4.53;;
61899;SDS011;47853;55.890;37.664;2024-02-26T12:17:55;16.55;;;6.00;;
61899;SDS011;47853;55.890;37.664;2024-02-26T12:20:21;11.27;;;4.75;;
61899;SDS011;47853;55.890;37.664;2024-02-26T12:22:46;11.43;;;4.72;;
61899;SDS011;47853;55.890;37.664;2024-02-26T12:25:15;19.77;;;5.90;;
61899;SDS011;47853;55.890;37.664;2024-02-26T12:27:41;9.60;;;5.15;;
61899;SDS011;47853;55.890;37.664;2024-02-26T12:30:06;9.85;;;4.53;;
61899;SDS011;47853;55.890;37.664;2024-02-26T12:32:35;8.43;;;5.07;;
61899;SDS011;47853;55.890;37.664;2024-02-26T12:35:01;22.67;;;6.78;;
61899;SDS011;47853;55.890;37.664;2024-02-26T12:37:27;12.05;;;5.00;;
61899;SDS011;47853;55.890;37.664;2024-02-26T12:39:53;6.82;;;4.18;;
61899;SDS011;47853;55.890;37.664;2024-02-26T12:42:19;16.15;;;5.28;;
61899;SDS011;47853;55.890;37.664;2024-02-26T12:44:45;13.75;;;5.47;;
61899;SDS011;47853;55.890;37.664;2024-02-26T12:47:11;13.48;;;5.78;;
61899;SDS011;47853;55.890;37.664;2024-02-26T12:49:36;9.48;;;5.40;;
61899;SDS011;47853;55.890;37.664;2024-02-26T12:52:02;11.00;;;4.90;;
61899;SDS011;47853;55.890;37.664;2024-02-26T12:54:28;13.60;;;4.95;;
61899;SDS011;47853;55.890;37.664;2024-02-26T12:56:55;10.20;;;5.10;;
61899;SDS011;47853;55.890;37.664;2024-02-26T12:59:20;14.32;;;5.50;;
61899;SDS011;47853;55.890;37.664;2024-02-26T13:01:46;6.18;;;4.00;;
61899;SDS011;47853;55.890;37.664;2024-02-26T13:04:12;16.00;;;5.28;;
61899;SDS011;47853;55.890;37.664;2024-02-26T13:06:37;10.93;;;4.90;;
61899;SDS011;47853;55.890;37.664;2024-02-26T13:09:03;10.95;;;4.28;;
61899;SDS011;47853;55.890;37.664;2024-02-26T13:11:29;12.45;;;4.80;;
61899;SDS011;47853;55.890;37.664;2024-02-26T13:13:55;11.88;;;5.30;;
61899;SDS011;47853;55.890;37.664;2024-02-26T13:16:20;10.48;;;4.53;;
61899;SDS011;47853;55.890;37.664;2024-02-26T13:18:49;15.20;;;5.70;;
61899;SDS011;47853;55.890;37.664;2024-02-26T13:21:15;7.93;;;3.78;;
61899;SDS011;47853;55.890;37.664;2024-02-26T13:23:43;12.38;;;4.97;;
61899;SDS011;47853;55.890;37.664;2024-02-26T13:26:13;9.57;;;3.88;;
61899;SDS011;47853;55.890;37.664;2024-02-26T13:28:38;9.27;;;3.80;;
61899;SDS011;47853;55.890;37.664;2024-02-26T13:31:04;15.60;;;4.88;;
61899;SDS011;47853;55.890;37.664;2024-02-26T13:33:30;10.45;;;4.20;;
61899;SDS011;47853;55.890;37.664;2024-02-26T13:35:56;11.52;;;4.38;;
61899;SDS011;47853;55.890;37.664;2024-02-26T13:38:22;5.22;;;2.95;;
61899;SDS011;47853;55.890;37.664;2024-02-26T13:40:49;8.27;;;4.53;;
61899;SDS011;47853;55.890;37.664;2024-02-26T13:43:15;7.68;;;3.83;;
61899;SDS011;47853;55.890;37.664;2024-02-26T13:45:40;11.20;;;4.82;;
61899;SDS011;47853;55.890;37.664;2024-02-26T13:48:06;10.52;;;4.18;;
61899;SDS011;47853;55.890;37.664;2024-02-26T13:50:33;11.02;;;4.15;;
61899;SDS011;47853;55.890;37.664;2024-02-26T13:52:58;8.98;;;4.10;;
61899;SDS011;47853;55.890;37.664;2024-02-26T13:55:27;22.45;;;5.80;;
61899;SDS011;47853;55.890;37.664;2024-02-26T13:57:56;7.82;;;3.63;;
61899;SDS011;47853;55.890;37.664;2024-02-26T14:00:40;8.27;;;4.18;;
61899;SDS011;47853;55.890;37.664;2024-02-26T14:03:06;12.10;;;4.10;;
61899;SDS011;47853;55.890;37.664;2024-02-26T14:05:31;9.38;;;3.88;;
61899;SDS011;47853;55.890;37.664;2024-02-26T14:08:00;16.65;;;4.53;;
61899;SDS011;47853;55.890;37.664;2024-02-26T14:10:25;8.40;;;3.05;;
61899;SDS011;47853;55.890;37.664;2024-02-26T14:12:50;10.48;;;4.10;;
61899;SDS011;47853;55.890;37.664;2024-02-26T14:15:18;11.70;;;4.10;;
61899;SDS011;47853;55.890;37.664;2024-02-26T14:17:44;5.75;;;3.58;;
61899;SDS011;47853;55.890;37.664;2024-02-26T14:20:09;9.65;;;3.33;;
61899;SDS011;47853;55.890;37.664;2024-02-26T14:22:35;7.50;;;3.80;;
61899;SDS011;47853;55.890;37.664;2024-02-26T14:25:01;8.50;;;3.65;;
61899;SDS011;47853;55.890;37.664;2024-02-26T14:27:26;9.25;;;4.47;;
61899;SDS011;47853;55.890;37.664;2024-02-26T14:29:51;13.90;;;4.50;;
61899;SDS011;47853;55.890;37.664;2024-02-26T14:32:17;9.45;;;4.35;;
61899;SDS011;47853;55.890;37.664;2024-02-26T14:34:42;9.55;;;2.75;;
61899;SDS011;47853;55.890;37.664;2024-02-26T14:37:08;10.50;;;4.13;;